sensor_id;sensor_type;location;lat;lon;timestamp;P1;durP1;ratioP1;P2;durP2;ratioP2
33844;SDS011;20145;43.118;25.694;2022-10-26T00:00:28;6.05;;;3.03;;
33844;SDS011;20145;43.118;25.694;2022-10-26T00:02:54;4.20;;;2.80;;
33844;SDS011;20145;43.118;25.694;2022-10-26T00:05:21;6.45;;;2.88;;
33844;SDS011;20145;43.118;25.694;2022-10-26T00:07:47;5.55;;;2.95;;
33844;SDS011;20145;43.118;25.694;2022-10-26T00:10:14;5.82;;;2.67;;
33844;SDS011;20145;43.118;25.694;2022-10-26T00:12:39;6.47;;;2.83;;
33844;SDS011;20145;43.118;25.694;2022-10-26T00:15:05;5.10;;;2.63;;
33844;SDS011;20145;43.118;25.694;2022-10-26T00:17:31;3.85;;;2.85;;
33844;SDS011;20145;43.118;25.694;2022-10-26T00:19:57;6.45;;;2.88;;
33844;SDS011;20145;43.118;25.694;2022-10-26T00:22:25;4.32;;;2.70;;
33844;SDS011;20145;43.118;25.694;2022-10-26T00:24:51;6.63;;;3.10;;
33844;SDS011;20145;43.118;25.694;2022-10-26T00:27:16;7.43;;;3.53;;
33844;SDS011;20145;43.118;25.694;2022-10-26T00:29:42;7.93;;;3.10;;
33844;SDS011;20145;43.118;25.694;2022-10-26T00:32:08;5.90;;;3.13;;
33844;SDS011;20145;43.118;25.694;2022-10-26T00:34:34;5.20;;;3.20;;
33844;SDS011;20145;43.118;25.694;2022-10-26T00:36:59;4.50;;;3.40;;
33844;SDS011;20145;43.118;25.694;2022-10-26T00:39:25;3.92;;;2.90;;
33844;SDS011;20145;43.118;25.694;2022-10-26T00:41:50;5.90;;;2.42;;
33844;SDS011;20145;43.118;25.694;2022-10-26T00:47:13;5.18;;;2.42;;
33844;SDS011;20145;43.118;25.694;2022-10-26T00:49:43;4.80;;;2.92;;
33844;SDS011;20145;43.118;25.694;2022-10-26T00:52:12;6.10;;;3.03;;
33844;SDS011;20145;43.118;25.694;2022-10-26T00:54:39;8.18;;;3.35;;
33844;SDS011;20145;43.118;25.694;2022-10-26T00:57:05;4.68;;;2.90;;
33844;SDS011;20145;43.118;25.694;2022-10-26T00:59:31;3.17;;;2.80;;
33844;SDS011;20145;43.118;25.694;2022-10-26T01:01:57;3.70;;;2.30;;
33844;SDS011;20145;43.118;25.694;2022-10-26T01:04:23;2.45;;;2.13;;
33844;SDS011;20145;43.118;25.694;2022-10-26T01:06:49;3.15;;;2.80;;
33844;SDS011;20145;43.118;25.694;2022-10-26T01:09:16;2.85;;;2.50;;
33844;SDS011;20145;43.118;25.694;2022-10-26T01:11:43;5.35;;;2.47;;
33844;SDS011;20145;43.118;25.694;2022-10-26T01:14:09;3.47;;;2.67;;
33844;SDS011;20145;43.118;25.694;2022-10-26T01:21:56;5.18;;;2.85;;
33844;SDS011;20145;43.118;25.694;2022-10-26T01:27:11;3.75;;;3.10;;
33844;SDS011;20145;43.118;25.694;2022-10-26T01:32:26;6.25;;;2.85;;
33844;SDS011;20145;43.118;25.694;2022-10-26T01:35:00;3.75;;;2.30;;
33844;SDS011;20145;43.118;25.694;2022-10-26T01:37:36;3.75;;;2.45;;
33844;SDS011;20145;43.118;25.694;2022-10-26T01:40:10;3.80;;;2.70;;
33844;SDS011;20145;43.118;25.694;2022-10-26T01:42:45;3.22;;;2.60;;
33844;SDS011;20145;43.118;25.694;2022-10-26T01:45:15;2.97;;;2.38;;
33844;SDS011;20145;43.118;25.694;2022-10-26T01:47:42;5.25;;;2.83;;
33844;SDS011;20145;43.118;25.694;2022-10-26T01:50:09;3.33;;;2.67;;
33844;SDS011;20145;43.118;25.694;2022-10-26T01:52:36;8.55;;;2.70;;
33844;SDS011;20145;43.118;25.694;2022-10-26T01:55:32;3.03;;;2.58;;
33844;SDS011;20145;43.118;25.694;2022-10-26T01:58:06;3.60;;;2.70;;
33844;SDS011;20145;43.118;25.694;2022-10-26T02:03:22;4.20;;;3.10;;
33844;SDS011;20145;43.118;25.694;2022-10-26T02:08:51;4.15;;;2.67;;
33844;SDS011;20145;43.118;25.694;2022-10-26T02:19:30;2.88;;;2.65;;
33844;SDS011;20145;43.118;25.694;2022-10-26T02:22:44;3.25;;;2.88;;
33844;SDS011;20145;43.118;25.694;2022-10-26T02:24:52;6.50;;;2.97;;
33844;SDS011;20145;43.118;25.694;2022-10-26T02:27:24;5.30;;;3.13;;
33844;SDS011;20145;43.118;25.694;2022-10-26T02:29:54;3.83;;;2.70;;
33844;SDS011;20145;43.118;25.694;2022-10-26T02:32:23;5.97;;;3.30;;
33844;SDS011;20145;43.118;25.694;2022-10-26T02:34:51;4.30;;;3.40;;
33844;SDS011;20145;43.118;25.694;2022-10-26T02:37:20;4.43;;;3.17;;
33844;SDS011;20145;43.118;25.694;2022-10-26T02:39:48;4.82;;;3.63;;
33844;SDS011;20145;43.118;25.694;2022-10-26T02:42:16;6.13;;;3.33;;
33844;SDS011;20145;43.118;25.694;2022-10-26T02:44:44;5.40;;;3.42;;
33844;SDS011;20145;43.118;25.694;2022-10-26T02:47:16;7.32;;;4.03;;
33844;SDS011;20145;43.118;25.694;2022-10-26T02:49:43;4.95;;;3.55;;
33844;SDS011;20145;43.118;25.694;2022-10-26T03:00:04;4.13;;;3.47;;
33844;SDS011;20145;43.118;25.694;2022-10-26T03:02:31;4.63;;;3.53;;
33844;SDS011;20145;43.118;25.694;2022-10-26T03:05:02;5.63;;;3.45;;
33844;SDS011;20145;43.118;25.694;2022-10-26T03:07:33;5.72;;;3.70;;
33844;SDS011;20145;43.118;25.694;2022-10-26T03:09:59;4.57;;;3.25;;
33844;SDS011;20145;43.118;25.694;2022-10-26T03:12:24;5.32;;;3.55;;
33844;SDS011;20145;43.118;25.694;2022-10-26T03:14:50;6.13;;;3.90;;
33844;SDS011;20145;43.118;25.694;2022-10-26T03:17:15;4.68;;;3.92;;
33844;SDS011;20145;43.118;25.694;2022-10-26T03:19:41;5.03;;;3.85;;
33844;SDS011;20145;43.118;25.694;2022-10-26T03:22:06;6.95;;;4.47;;
33844;SDS011;20145;43.118;25.694;2022-10-26T03:24:32;4.30;;;3.65;;
33844;SDS011;20145;43.118;25.694;2022-10-26T03:26:58;7.25;;;3.72;;
33844;SDS011;20145;43.118;25.694;2022-10-26T03:29:23;5.15;;;3.65;;
33844;SDS011;20145;43.118;25.694;2022-10-26T03:31:49;4.13;;;3.38;;
33844;SDS011;20145;43.118;25.694;2022-10-26T03:34:18;5.75;;;3.20;;
33844;SDS011;20145;43.118;25.694;2022-10-26T03:36:44;5.72;;;3.65;;
33844;SDS011;20145;43.118;25.694;2022-10-26T03:39:10;4.07;;;3.35;;
33844;SDS011;20145;43.118;25.694;2022-10-26T03:41:36;4.63;;;3.55;;
33844;SDS011;20145;43.118;25.694;2022-10-26T03:44:01;6.32;;;3.65;;
33844;SDS011;20145;43.118;25.694;2022-10-26T03:46:27;4.53;;;3.85;;
33844;SDS011;20145;43.118;25.694;2022-10-26T03:48:52;7.78;;;3.92;;
33844;SDS011;20145;43.118;25.694;2022-10-26T03:51:18;4.90;;;4.00;;
33844;SDS011;20145;43.118;25.694;2022-10-26T03:53:43;3.47;;;3.17;;
33844;SDS011;20145;43.118;25.694;2022-10-26T03:56:09;7.55;;;3.65;;
33844;SDS011;20145;43.118;25.694;2022-10-26T03:58:35;5.97;;;3.53;;
33844;SDS011;20145;43.118;25.694;2022-10-26T04:01:00;5.50;;;3.75;;
33844;SDS011;20145;43.118;25.694;2022-10-26T04:03:26;6.10;;;3.53;;
33844;SDS011;20145;43.118;25.694;2022-10-26T04:05:51;8.15;;;3.92;;
33844;SDS011;20145;43.118;25.694;2022-10-26T04:08:17;9.02;;;4.15;;
33844;SDS011;20145;43.118;25.694;2022-10-26T04:10:44;4.38;;;3.58;;
33844;SDS011;20145;43.118;25.694;2022-10-26T04:13:10;4.18;;;3.45;;
33844;SDS011;20145;43.118;25.694;2022-10-26T04:15:36;6.18;;;3.70;;
33844;SDS011;20145;43.118;25.694;2022-10-26T04:18:02;3.83;;;3.42;;
33844;SDS011;20145;43.118;25.694;2022-10-26T04:20:28;9.52;;;3.70;;
33844;SDS011;20145;43.118;25.694;2022-10-26T04:22:58;10.35;;;3.83;;
33844;SDS011;20145;43.118;25.694;2022-10-26T04:25:25;6.47;;;3.42;;
33844;SDS011;20145;43.118;25.694;2022-10-26T04:27:51;6.35;;;4.80;;
33844;SDS011;20145;43.118;25.694;2022-10-26T04:30:17;10.82;;;4.90;;
33844;SDS011;20145;43.118;25.694;2022-10-26T04:32:42;9.63;;;4.70;;
33844;SDS011;20145;43.118;25.694;2022-10-26T04:35:08;14.25;;;5.15;;
33844;SDS011;20145;43.118;25.694;2022-10-26T04:37:33;17.77;;;5.60;;
33844;SDS011;20145;43.118;25.694;2022-10-26T04:39:59;7.35;;;4.20;;
33844;SDS011;20145;43.118;25.694;2022-10-26T04:42:24;9.80;;;4.40;;
33844;SDS011;20145;43.118;25.694;2022-10-26T04:44:50;7.18;;;3.92;;
33844;SDS011;20145;43.118;25.694;2022-10-26T04:47:15;9.10;;;5.60;;
33844;SDS011;20145;43.118;25.694;2022-10-26T04:49:41;10.13;;;4.32;;
33844;SDS011;20145;43.118;25.694;2022-10-26T04:52:06;10.63;;;4.80;;
33844;SDS011;20145;43.118;25.694;2022-10-26T04:54:32;11.65;;;5.47;;
33844;SDS011;20145;43.118;25.694;2022-10-26T04:56:58;7.85;;;5.28;;
33844;SDS011;20145;43.118;25.694;2022-10-26T04:59:23;10.32;;;5.25;;
33844;SDS011;20145;43.118;25.694;2022-10-26T05:01:49;11.98;;;4.97;;
33844;SDS011;20145;43.118;25.694;2022-10-26T05:04:14;11.63;;;4.95;;
33844;SDS011;20145;43.118;25.694;2022-10-26T05:06:40;10.10;;;5.03;;
33844;SDS011;20145;43.118;25.694;2022-10-26T05:09:05;13.65;;;5.00;;
33844;SDS011;20145;43.118;25.694;2022-10-26T05:11:31;14.55;;;5.35;;
33844;SDS011;20145;43.118;25.694;2022-10-26T05:13:57;9.77;;;4.72;;
33844;SDS011;20145;43.118;25.694;2022-10-26T05:16:22;9.02;;;4.60;;
33844;SDS011;20145;43.118;25.694;2022-10-26T05:18:48;13.32;;;4.65;;
33844;SDS011;20145;43.118;25.694;2022-10-26T05:21:14;9.65;;;4.78;;
33844;SDS011;20145;43.118;25.694;2022-10-26T05:23:47;7.72;;;4.75;;
33844;SDS011;20145;43.118;25.694;2022-10-26T05:26:15;6.80;;;5.22;;
33844;SDS011;20145;43.118;25.694;2022-10-26T05:28:41;9.00;;;4.85;;
33844;SDS011;20145;43.118;25.694;2022-10-26T05:31:07;8.38;;;4.20;;
33844;SDS011;20145;43.118;25.694;2022-10-26T05:33:32;10.60;;;5.10;;
33844;SDS011;20145;43.118;25.694;2022-10-26T05:35:58;6.47;;;4.80;;
33844;SDS011;20145;43.118;25.694;2022-10-26T05:38:23;14.23;;;5.22;;
33844;SDS011;20145;43.118;25.694;2022-10-26T05:40:50;10.55;;;4.53;;
33844;SDS011;20145;43.118;25.694;2022-10-26T05:43:17;12.23;;;4.93;;
33844;SDS011;20145;43.118;25.694;2022-10-26T05:45:43;11.10;;;6.10;;
33844;SDS011;20145;43.118;25.694;2022-10-26T05:48:09;15.98;;;7.18;;
33844;SDS011;20145;43.118;25.694;2022-10-26T05:50:35;18.15;;;13.35;;
33844;SDS011;20145;43.118;25.694;2022-10-26T05:53:00;9.38;;;6.38;;
33844;SDS011;20145;43.118;25.694;2022-10-26T05:55:26;10.60;;;5.90;;
33844;SDS011;20145;43.118;25.694;2022-10-26T05:57:52;9.48;;;5.35;;
33844;SDS011;20145;43.118;25.694;2022-10-26T06:00:19;8.30;;;4.53;;
33844;SDS011;20145;43.118;25.694;2022-10-26T06:03:31;9.75;;;4.95;;
33844;SDS011;20145;43.118;25.694;2022-10-26T06:08:17;10.02;;;4.03;;
33844;SDS011;20145;43.118;25.694;2022-10-26T06:10:43;8.20;;;3.85;;
33844;SDS011;20145;43.118;25.694;2022-10-26T06:13:09;8.18;;;4.13;;
33844;SDS011;20145;43.118;25.694;2022-10-26T06:15:37;18.35;;;5.60;;
33844;SDS011;20145;43.118;25.694;2022-10-26T06:24:32;6.68;;;3.30;;
33844;SDS011;20145;43.118;25.694;2022-10-26T06:27:09;9.38;;;3.45;;
33844;SDS011;20145;43.118;25.694;2022-10-26T06:32:37;4.68;;;3.63;;
33844;SDS011;20145;43.118;25.694;2022-10-26T06:37:39;4.90;;;3.30;;
33844;SDS011;20145;43.118;25.694;2022-10-26T06:40:08;6.03;;;3.00;;
33844;SDS011;20145;43.118;25.694;2022-10-26T06:42:39;4.47;;;2.92;;
33844;SDS011;20145;43.118;25.694;2022-10-26T06:45:05;5.38;;;3.08;;
33844;SDS011;20145;43.118;25.694;2022-10-26T06:47:37;5.22;;;2.72;;
33844;SDS011;20145;43.118;25.694;2022-10-26T06:50:18;4.93;;;3.28;;
33844;SDS011;20145;43.118;25.694;2022-10-26T06:53:14;3.83;;;2.70;;
33844;SDS011;20145;43.118;25.694;2022-10-26T06:55:42;7.50;;;2.90;;
33844;SDS011;20145;43.118;25.694;2022-10-26T06:58:13;3.72;;;2.50;;
33844;SDS011;20145;43.118;25.694;2022-10-26T07:00:42;6.50;;;2.63;;
33844;SDS011;20145;43.118;25.694;2022-10-26T07:03:10;4.07;;;2.90;;
33844;SDS011;20145;43.118;25.694;2022-10-26T07:05:35;11.77;;;4.45;;
33844;SDS011;20145;43.118;25.694;2022-10-26T07:08:01;9.60;;;3.35;;
33844;SDS011;20145;43.118;25.694;2022-10-26T07:10:27;8.63;;;2.90;;
33844;SDS011;20145;43.118;25.694;2022-10-26T07:12:52;7.85;;;3.00;;
33844;SDS011;20145;43.118;25.694;2022-10-26T07:15:18;4.88;;;2.47;;
33844;SDS011;20145;43.118;25.694;2022-10-26T07:17:44;3.65;;;2.78;;
33844;SDS011;20145;43.118;25.694;2022-10-26T07:20:10;4.03;;;2.60;;
33844;SDS011;20145;43.118;25.694;2022-10-26T07:22:37;5.43;;;2.80;;
33844;SDS011;20145;43.118;25.694;2022-10-26T07:25:03;5.50;;;2.92;;
33844;SDS011;20145;43.118;25.694;2022-10-26T07:27:30;3.92;;;2.80;;
33844;SDS011;20145;43.118;25.694;2022-10-26T07:29:56;8.45;;;2.92;;
33844;SDS011;20145;43.118;25.694;2022-10-26T07:32:22;7.25;;;3.60;;
33844;SDS011;20145;43.118;25.694;2022-10-26T07:34:48;5.85;;;3.97;;
33844;SDS011;20145;43.118;25.694;2022-10-26T07:37:13;5.88;;;3.50;;
33844;SDS011;20145;43.118;25.694;2022-10-26T07:39:39;7.28;;;3.80;;
33844;SDS011;20145;43.118;25.694;2022-10-26T07:42:05;8.50;;;3.53;;
33844;SDS011;20145;43.118;25.694;2022-10-26T07:44:30;7.38;;;3.83;;
33844;SDS011;20145;43.118;25.694;2022-10-26T07:46:56;5.82;;;4.20;;
33844;SDS011;20145;43.118;25.694;2022-10-26T07:49:22;7.03;;;3.85;;
33844;SDS011;20145;43.118;25.694;2022-10-26T07:51:47;8.95;;;3.60;;
33844;SDS011;20145;43.118;25.694;2022-10-26T07:54:13;8.95;;;3.90;;
33844;SDS011;20145;43.118;25.694;2022-10-26T07:56:39;7.10;;;3.80;;
33844;SDS011;20145;43.118;25.694;2022-10-26T07:59:04;12.20;;;3.97;;
33844;SDS011;20145;43.118;25.694;2022-10-26T08:01:30;10.52;;;4.25;;
33844;SDS011;20145;43.118;25.694;2022-10-26T08:03:56;7.85;;;3.40;;
33844;SDS011;20145;43.118;25.694;2022-10-26T08:06:21;7.68;;;3.47;;
33844;SDS011;20145;43.118;25.694;2022-10-26T08:08:48;7.03;;;3.88;;
33844;SDS011;20145;43.118;25.694;2022-10-26T08:11:14;6.38;;;3.53;;
33844;SDS011;20145;43.118;25.694;2022-10-26T08:13:41;5.70;;;3.42;;
33844;SDS011;20145;43.118;25.694;2022-10-26T08:16:06;5.82;;;3.20;;
33844;SDS011;20145;43.118;25.694;2022-10-26T08:18:33;11.60;;;3.60;;
33844;SDS011;20145;43.118;25.694;2022-10-26T08:21:02;10.52;;;4.05;;
33844;SDS011;20145;43.118;25.694;2022-10-26T08:23:30;4.80;;;3.17;;
33844;SDS011;20145;43.118;25.694;2022-10-26T08:25:57;5.30;;;3.22;;
33844;SDS011;20145;43.118;25.694;2022-10-26T08:28:26;8.30;;;3.10;;
33844;SDS011;20145;43.118;25.694;2022-10-26T08:30:53;5.00;;;2.70;;
33844;SDS011;20145;43.118;25.694;2022-10-26T08:33:19;4.18;;;2.88;;
33844;SDS011;20145;43.118;25.694;2022-10-26T08:35:44;7.10;;;3.25;;
33844;SDS011;20145;43.118;25.694;2022-10-26T08:38:10;6.30;;;2.90;;
33844;SDS011;20145;43.118;25.694;2022-10-26T08:40:37;10.07;;;2.80;;
33844;SDS011;20145;43.118;25.694;2022-10-26T08:48:46;3.03;;;2.67;;
33844;SDS011;20145;43.118;25.694;2022-10-26T08:54:02;6.45;;;2.55;;
33844;SDS011;20145;43.118;25.694;2022-10-26T08:56:34;5.90;;;2.85;;
33844;SDS011;20145;43.118;25.694;2022-10-26T09:01:41;3.53;;;2.63;;
33844;SDS011;20145;43.118;25.694;2022-10-26T09:04:10;4.82;;;2.47;;
33844;SDS011;20145;43.118;25.694;2022-10-26T09:23:01;3.63;;;2.55;;
33844;SDS011;20145;43.118;25.694;2022-10-26T09:25:40;5.70;;;2.85;;
33844;SDS011;20145;43.118;25.694;2022-10-26T09:28:10;6.00;;;2.38;;
33844;SDS011;20145;43.118;25.694;2022-10-26T09:30:42;6.93;;;3.20;;
33844;SDS011;20145;43.118;25.694;2022-10-26T09:33:15;3.33;;;2.45;;
33844;SDS011;20145;43.118;25.694;2022-10-26T09:38:13;5.18;;;2.83;;
33844;SDS011;20145;43.118;25.694;2022-10-26T09:43:42;4.93;;;2.60;;
33844;SDS011;20145;43.118;25.694;2022-10-26T09:46:21;3.92;;;2.40;;
33844;SDS011;20145;43.118;25.694;2022-10-26T09:48:54;3.80;;;2.13;;
33844;SDS011;20145;43.118;25.694;2022-10-26T09:51:23;4.22;;;2.17;;
33844;SDS011;20145;43.118;25.694;2022-10-26T09:53:51;5.90;;;2.70;;
33844;SDS011;20145;43.118;25.694;2022-10-26T09:56:20;3.85;;;3.00;;
33844;SDS011;20145;43.118;25.694;2022-10-26T09:58:54;3.67;;;2.80;;
33844;SDS011;20145;43.118;25.694;2022-10-26T10:06:39;3.17;;;2.03;;
33844;SDS011;20145;43.118;25.694;2022-10-26T10:14:08;4.20;;;2.72;;
33844;SDS011;20145;43.118;25.694;2022-10-26T10:16:39;5.85;;;2.65;;
33844;SDS011;20145;43.118;25.694;2022-10-26T10:19:20;3.53;;;2.40;;
33844;SDS011;20145;43.118;25.694;2022-10-26T10:21:48;5.13;;;2.45;;
33844;SDS011;20145;43.118;25.694;2022-10-26T10:24:28;4.72;;;2.97;;
33844;SDS011;20145;43.118;25.694;2022-10-26T10:27:15;5.68;;;2.67;;
33844;SDS011;20145;43.118;25.694;2022-10-26T10:29:46;4.43;;;2.95;;
33844;SDS011;20145;43.118;25.694;2022-10-26T10:32:14;10.27;;;3.05;;
33844;SDS011;20145;43.118;25.694;2022-10-26T10:34:42;4.63;;;2.72;;
33844;SDS011;20145;43.118;25.694;2022-10-26T10:37:21;6.82;;;2.60;;
33844;SDS011;20145;43.118;25.694;2022-10-26T10:40:17;6.80;;;2.67;;
33844;SDS011;20145;43.118;25.694;2022-10-26T10:42:45;2.58;;;1.83;;
33844;SDS011;20145;43.118;25.694;2022-10-26T10:45:18;4.10;;;2.40;;
33844;SDS011;20145;43.118;25.694;2022-10-26T10:48:00;7.68;;;2.53;;
33844;SDS011;20145;43.118;25.694;2022-10-26T10:50:29;6.70;;;2.40;;
33844;SDS011;20145;43.118;25.694;2022-10-26T10:58:30;3.28;;;2.03;;
33844;SDS011;20145;43.118;25.694;2022-10-26T11:01:00;4.53;;;1.95;;
33844;SDS011;20145;43.118;25.694;2022-10-26T11:03:35;3.25;;;1.98;;
33844;SDS011;20145;43.118;25.694;2022-10-26T11:06:26;6.53;;;1.85;;
33844;SDS011;20145;43.118;25.694;2022-10-26T11:11:52;2.38;;;2.08;;
33844;SDS011;20145;43.118;25.694;2022-10-26T11:17:05;2.53;;;1.63;;
33844;SDS011;20145;43.118;25.694;2022-10-26T11:22:13;2.95;;;1.80;;
33844;SDS011;20145;43.118;25.694;2022-10-26T11:24:46;3.22;;;1.98;;
33844;SDS011;20145;43.118;25.694;2022-10-26T11:30:03;4.47;;;2.03;;
33844;SDS011;20145;43.118;25.694;2022-10-26T11:35:02;8.57;;;2.55;;
33844;SDS011;20145;43.118;25.694;2022-10-26T11:37:43;3.13;;;2.13;;
33844;SDS011;20145;43.118;25.694;2022-10-26T11:43:09;4.63;;;2.25;;
33844;SDS011;20145;43.118;25.694;2022-10-26T11:45:43;5.33;;;2.07;;
33844;SDS011;20145;43.118;25.694;2022-10-26T11:50:48;3.22;;;2.10;;
33844;SDS011;20145;43.118;25.694;2022-10-26T11:53:20;7.82;;;2.08;;
33844;SDS011;20145;43.118;25.694;2022-10-26T11:55:53;2.90;;;1.52;;
33844;SDS011;20145;43.118;25.694;2022-10-26T11:58:23;2.30;;;1.80;;
33844;SDS011;20145;43.118;25.694;2022-10-26T12:00:59;2.03;;;1.50;;
33844;SDS011;20145;43.118;25.694;2022-10-26T12:03:29;2.50;;;1.60;;
33844;SDS011;20145;43.118;25.694;2022-10-26T12:05:59;4.18;;;2.17;;
33844;SDS011;20145;43.118;25.694;2022-10-26T12:08:38;4.95;;;1.92;;
33844;SDS011;20145;43.118;25.694;2022-10-26T12:11:50;3.30;;;1.60;;
33844;SDS011;20145;43.118;25.694;2022-10-26T12:16:51;4.70;;;1.90;;
33844;SDS011;20145;43.118;25.694;2022-10-26T12:22:15;2.03;;;1.83;;
33844;SDS011;20145;43.118;25.694;2022-10-26T12:24:46;2.90;;;1.70;;
33844;SDS011;20145;43.118;25.694;2022-10-26T12:37:56;8.27;;;1.50;;
33844;SDS011;20145;43.118;25.694;2022-10-26T12:43:42;2.28;;;1.45;;
33844;SDS011;20145;43.118;25.694;2022-10-26T12:45:46;3.08;;;1.80;;
33844;SDS011;20145;43.118;25.694;2022-10-26T12:54:01;3.17;;;1.52;;
33844;SDS011;20145;43.118;25.694;2022-10-26T12:56:41;2.38;;;1.88;;
33844;SDS011;20145;43.118;25.694;2022-10-26T12:59:45;3.72;;;2.03;;
33844;SDS011;20145;43.118;25.694;2022-10-26T13:05:05;3.42;;;1.92;;
33844;SDS011;20145;43.118;25.694;2022-10-26T13:08:08;3.08;;;1.90;;
33844;SDS011;20145;43.118;25.694;2022-10-26T13:10:37;5.35;;;2.20;;
33844;SDS011;20145;43.118;25.694;2022-10-26T13:13:17;3.63;;;2.13;;
33844;SDS011;20145;43.118;25.694;2022-10-26T13:15:51;3.20;;;2.55;;
33844;SDS011;20145;43.118;25.694;2022-10-26T13:18:20;6.53;;;2.53;;
33844;SDS011;20145;43.118;25.694;2022-10-26T13:23:39;5.50;;;2.45;;
33844;SDS011;20145;43.118;25.694;2022-10-26T13:26:28;6.80;;;2.75;;
33844;SDS011;20145;43.118;25.694;2022-10-26T13:28:58;7.05;;;2.80;;
33844;SDS011;20145;43.118;25.694;2022-10-26T13:33:58;5.57;;;2.85;;
33844;SDS011;20145;43.118;25.694;2022-10-26T13:39:18;3.33;;;2.10;;
33844;SDS011;20145;43.118;25.694;2022-10-26T13:41:46;3.92;;;2.25;;
33844;SDS011;20145;43.118;25.694;2022-10-26T13:47:51;3.55;;;2.30;;
33844;SDS011;20145;43.118;25.694;2022-10-26T13:50:21;6.65;;;2.25;;
33844;SDS011;20145;43.118;25.694;2022-10-26T13:52:51;6.57;;;2.67;;
33844;SDS011;20145;43.118;25.694;2022-10-26T13:55:31;5.82;;;2.30;;
33844;SDS011;20145;43.118;25.694;2022-10-26T14:00:32;3.47;;;2.20;;
33844;SDS011;20145;43.118;25.694;2022-10-26T14:02:58;5.00;;;2.20;;
33844;SDS011;20145;43.118;25.694;2022-10-26T14:05:23;3.30;;;2.35;;
33844;SDS011;20145;43.118;25.694;2022-10-26T14:07:51;4.00;;;2.17;;
33844;SDS011;20145;43.118;25.694;2022-10-26T14:12:52;3.15;;;1.95;;
33844;SDS011;20145;43.118;25.694;2022-10-26T14:15:18;2.72;;;2.10;;
33844;SDS011;20145;43.118;25.694;2022-10-26T14:17:49;13.90;;;2.03;;
33844;SDS011;20145;43.118;25.694;2022-10-26T14:20:20;10.23;;;2.35;;
33844;SDS011;20145;43.118;25.694;2022-10-26T14:22:48;3.75;;;1.83;;
33844;SDS011;20145;43.118;25.694;2022-10-26T14:25:16;2.80;;;2.17;;
33844;SDS011;20145;43.118;25.694;2022-10-26T14:27:44;7.25;;;2.42;;
33844;SDS011;20145;43.118;25.694;2022-10-26T14:30:29;3.33;;;2.17;;
33844;SDS011;20145;43.118;25.694;2022-10-26T14:32:56;5.35;;;2.10;;
33844;SDS011;20145;43.118;25.694;2022-10-26T14:35:29;3.22;;;1.80;;
33844;SDS011;20145;43.118;25.694;2022-10-26T14:38:09;4.30;;;2.15;;
33844;SDS011;20145;43.118;25.694;2022-10-26T14:40:47;8.85;;;2.15;;
33844;SDS011;20145;43.118;25.694;2022-10-26T14:43:16;2.63;;;2.38;;
33844;SDS011;20145;43.118;25.694;2022-10-26T14:45:46;8.80;;;2.72;;
33844;SDS011;20145;43.118;25.694;2022-10-26T14:48:34;6.80;;;2.35;;
33844;SDS011;20145;43.118;25.694;2022-10-26T14:51:08;6.80;;;3.47;;
33844;SDS011;20145;43.118;25.694;2022-10-26T14:53:40;9.07;;;3.55;;
33844;SDS011;20145;43.118;25.694;2022-10-26T14:58:50;12.20;;;2.70;;
33844;SDS011;20145;43.118;25.694;2022-10-26T15:01:30;9.07;;;2.72;;
33844;SDS011;20145;43.118;25.694;2022-10-26T15:03:57;6.45;;;2.83;;
33844;SDS011;20145;43.118;25.694;2022-10-26T15:08:53;16.73;;;3.15;;
33844;SDS011;20145;43.118;25.694;2022-10-26T15:11:20;24.85;;;6.60;;
33844;SDS011;20145;43.118;25.694;2022-10-26T15:13:46;29.73;;;9.48;;
33844;SDS011;20145;43.118;25.694;2022-10-26T15:16:16;20.92;;;6.65;;
33844;SDS011;20145;43.118;25.694;2022-10-26T15:18:47;6.65;;;3.63;;
33844;SDS011;20145;43.118;25.694;2022-10-26T15:21:25;4.55;;;3.13;;
33844;SDS011;20145;43.118;25.694;2022-10-26T15:23:53;6.85;;;2.13;;
33844;SDS011;20145;43.118;25.694;2022-10-26T15:26:21;7.32;;;1.90;;
33844;SDS011;20145;43.118;25.694;2022-10-26T15:28:47;6.07;;;2.17;;
33844;SDS011;20145;43.118;25.694;2022-10-26T15:36:28;5.97;;;1.90;;
33844;SDS011;20145;43.118;25.694;2022-10-26T15:38:55;15.25;;;2.10;;
33844;SDS011;20145;43.118;25.694;2022-10-26T15:41:25;5.15;;;1.75;;
33844;SDS011;20145;43.118;25.694;2022-10-26T15:43:57;8.25;;;3.50;;
33844;SDS011;20145;43.118;25.694;2022-10-26T15:46:28;6.45;;;2.15;;
33844;SDS011;20145;43.118;25.694;2022-10-26T15:48:55;10.15;;;1.92;;
33844;SDS011;20145;43.118;25.694;2022-10-26T15:51:23;6.40;;;2.13;;
33844;SDS011;20145;43.118;25.694;2022-10-26T15:53:49;6.13;;;2.35;;
33844;SDS011;20145;43.118;25.694;2022-10-26T15:56:18;10.80;;;2.00;;
33844;SDS011;20145;43.118;25.694;2022-10-26T15:58:47;4.13;;;2.17;;
33844;SDS011;20145;43.118;25.694;2022-10-26T16:01:24;11.43;;;2.33;;
33844;SDS011;20145;43.118;25.694;2022-10-26T16:03:51;5.57;;;2.33;;
33844;SDS011;20145;43.118;25.694;2022-10-26T16:06:27;4.72;;;2.00;;
33844;SDS011;20145;43.118;25.694;2022-10-26T16:08:59;8.80;;;2.38;;
33844;SDS011;20145;43.118;25.694;2022-10-26T16:11:26;7.57;;;2.42;;
33844;SDS011;20145;43.118;25.694;2022-10-26T16:13:52;8.85;;;2.50;;
33844;SDS011;20145;43.118;25.694;2022-10-26T16:16:18;9.95;;;2.45;;
33844;SDS011;20145;43.118;25.694;2022-10-26T16:18:44;4.93;;;1.80;;
33844;SDS011;20145;43.118;25.694;2022-10-26T16:21:16;10.68;;;2.80;;
33844;SDS011;20145;43.118;25.694;2022-10-26T16:23:50;6.22;;;2.90;;
33844;SDS011;20145;43.118;25.694;2022-10-26T16:26:18;10.70;;;2.53;;
33844;SDS011;20145;43.118;25.694;2022-10-26T16:28:45;8.32;;;2.63;;
33844;SDS011;20145;43.118;25.694;2022-10-26T16:31:12;4.47;;;2.33;;
33844;SDS011;20145;43.118;25.694;2022-10-26T16:33:39;4.18;;;2.10;;
33844;SDS011;20145;43.118;25.694;2022-10-26T16:36:05;6.18;;;2.45;;
33844;SDS011;20145;43.118;25.694;2022-10-26T16:38:31;6.40;;;2.25;;
33844;SDS011;20145;43.118;25.694;2022-10-26T16:41:01;5.55;;;3.00;;
33844;SDS011;20145;43.118;25.694;2022-10-26T16:43:38;4.53;;;2.60;;
33844;SDS011;20145;43.118;25.694;2022-10-26T16:46:06;6.97;;;2.80;;
33844;SDS011;20145;43.118;25.694;2022-10-26T16:48:40;3.22;;;2.60;;
33844;SDS011;20145;43.118;25.694;2022-10-26T16:51:25;6.55;;;2.65;;
33844;SDS011;20145;43.118;25.694;2022-10-26T16:53:53;10.15;;;2.30;;
33844;SDS011;20145;43.118;25.694;2022-10-26T16:56:21;2.92;;;2.50;;
33844;SDS011;20145;43.118;25.694;2022-10-26T16:58:49;3.03;;;2.50;;
33844;SDS011;20145;43.118;25.694;2022-10-26T17:01:15;4.82;;;2.20;;
33844;SDS011;20145;43.118;25.694;2022-10-26T17:03:47;4.00;;;2.40;;
33844;SDS011;20145;43.118;25.694;2022-10-26T17:06:14;5.00;;;2.55;;
33844;SDS011;20145;43.118;25.694;2022-10-26T17:08:41;6.53;;;2.70;;
33844;SDS011;20145;43.118;25.694;2022-10-26T17:13:34;4.38;;;2.80;;
33844;SDS011;20145;43.118;25.694;2022-10-26T17:16:05;6.65;;;3.00;;
33844;SDS011;20145;43.118;25.694;2022-10-26T17:18:35;4.53;;;2.63;;
33844;SDS011;20145;43.118;25.694;2022-10-26T17:21:02;6.95;;;2.78;;
33844;SDS011;20145;43.118;25.694;2022-10-26T17:23:28;4.65;;;2.85;;
33844;SDS011;20145;43.118;25.694;2022-10-26T17:25:54;5.55;;;2.60;;
33844;SDS011;20145;43.118;25.694;2022-10-26T17:28:24;5.50;;;2.80;;
33844;SDS011;20145;43.118;25.694;2022-10-26T17:30:50;3.67;;;2.70;;
33844;SDS011;20145;43.118;25.694;2022-10-26T17:33:15;2.85;;;2.60;;
33844;SDS011;20145;43.118;25.694;2022-10-26T17:35:41;6.53;;;3.10;;
33844;SDS011;20145;43.118;25.694;2022-10-26T17:38:07;7.22;;;3.15;;
33844;SDS011;20145;43.118;25.694;2022-10-26T17:40:32;5.22;;;3.20;;